Time;durP1;ratioP1;P1;durP2;ratioP2;P2;SDS_P1;SDS_P2;PMS_P1;PMS_P2;Temp;Humidity;BMP_temperature;BMP_pressure;BME280_temperature;BME280_humidity;BME280_pressure;Samples;Min_cycle;Max_cycle;Signal;HPM_P1;HPM_P2
2022/06/08 00:02:32;;;;;;;21.57;15.60;;;;;;;;;;4427133;80;28515;-80
2022/06/08 00:08:33;;;;;;;20.17;15.63;;;;;;;;;;4427298;79;28493;-80
2022/06/08 00:14:35;;;;;;;20.72;15.38;;;;;;;;;;4409881;80;28472;-79
2022/06/08 00:20:38;;;;;;;21.65;15.83;;;;;;;;;;4420799;80;28480;-79
2022/06/08 00:26:39;;;;;;;21.70;14.80;;;;;;;;;;4411924;79;28512;-78
2022/06/08 00:32:40;;;;;;;19.73;14.55;;;;;;;;;;4434819;79;28538;-79
2022/06/08 00:38:42;;;;;;;20.40;14.38;;;;;;;;;;4426868;79;28497;-79
2022/06/08 00:44:53;;;;;;;17.48;13.95;;;;;;;;;;4432477;79;28452;-78
2022/06/08 00:50:57;;;;;;;20.85;15.50;;;;;;;;;;4409658;79;28554;-78
2022/06/08 00:57:02;;;;;;;20.82;14.95;;;;;;;;;;4370838;79;28520;-77
2022/06/08 01:03:03;;;;;;;18.95;14.23;;;;;;;;;;4404511;79;28527;-78
2022/06/08 01:09:12;;;;;;;19.27;15.13;;;;;;;;;;4426517;79;28511;-79
2022/06/08 01:15:17;;;;;;;19.82;15.13;;;;;;;;;;4415752;79;28515;-80
2022/06/08 01:21:27;;;;;;;20.57;15.95;;;;;;;;;;4439110;80;28477;-78
2022/06/08 01:27:58;;;;;;;20.10;14.63;;;;;;;;;;4421423;80;28509;-78
2022/06/08 01:34:12;;;;;;;19.02;13.98;;;;;;;;;;4464300;79;28501;-75
2022/06/08 01:40:26;;;;;;;20.30;14.58;;;;;;;;;;4428483;80;28531;-76
2022/06/08 01:46:32;;;;;;;19.25;14.00;;;;;;;;;;4454031;79;28509;-77
2022/06/08 01:52:40;;;;;;;17.92;14.20;;;;;;;;;;4434913;79;28515;-77
2022/06/08 01:58:57;;;;;;;19.45;14.30;;;;;;;;;;4383783;80;28567;-77
2022/06/08 02:05:08;;;;;;;21.15;14.98;;;;;;;;;;4447303;79;28521;-78
2022/06/08 02:11:16;;;;;;;19.32;15.40;;;;;;;;;;4430032;79;28489;-78
2022/06/08 02:17:25;;;;;;;23.70;16.20;;;;;;;;;;4484139;78;28515;-78
2022/06/08 02:23:31;;;;;;;23.38;16.25;;;;;;;;;;4391346;79;28598;-77
2022/06/08 02:29:39;;;;;;;24.67;16.70;;;;;;;;;;4365208;80;28911;-77
2022/06/08 02:35:47;;;;;;;22.22;16.95;;;;;;;;;;4394509;80;28556;-78
2022/06/08 02:41:52;;;;;;;21.82;15.80;;;;;;;;;;4379863;80;28535;-77
2022/06/08 02:47:57;;;;;;;23.90;15.90;;;;;;;;;;4315105;80;28488;-79
2022/06/08 02:54:03;;;;;;;15.83;12.25;;;;;;;;;;4363355;81;28549;-79
2022/06/08 03:00:35;;;;;;;15.80;12.43;;;;;;;;;;4320496;80;28822;-78
2022/06/08 03:06:43;;;;;;;15.32;12.47;;;;;;;;;;4444928;80;28501;-78
2022/06/08 03:12:50;;;;;;;15.45;12.00;;;;;;;;;;4422985;80;28486;-77
2022/06/08 03:18:52;;;;;;;17.52;11.73;;;;;;;;;;4410655;80;28526;-77
2022/06/08 03:24:54;;;;;;;14.98;11.05;;;;;;;;;;4351196;80;28488;-79
2022/06/08 03:30:55;;;;;;;16.50;11.10;;;;;;;;;;4495192;79;28517;-76
2022/06/08 03:36:57;;;;;;;15.08;10.45;;;;;;;;;;4378688;80;28514;-78
2022/06/08 03:43:00;;;;;;;15.50;11.03;;;;;;;;;;4393357;80;28483;-79
2022/06/08 03:49:02;;;;;;;14.85;10.48;;;;;;;;;;4460024;79;28557;-79
2022/06/08 03:55:06;;;;;;;14.20;10.23;;;;;;;;;;4360315;81;28500;-78
2022/06/08 04:01:08;;;;;;;15.13;10.23;;;;;;;;;;4334286;81;28559;-77
2022/06/08 04:07:10;;;;;;;16.52;10.23;;;;;;;;;;4376904;80;28502;-78
2022/06/08 04:13:13;;;;;;;14.03;10.65;;;;;;;;;;4362984;81;28574;-79
2022/06/08 04:19:15;;;;;;;15.18;10.90;;;;;;;;;;4371332;80;28502;-77
2022/06/08 04:25:17;;;;;;;12.95;9.68;;;;;;;;;;4372626;80;28550;-77
2022/06/08 04:31:20;;;;;;;14.38;10.25;;;;;;;;;;4379055;80;28569;-78
2022/06/08 04:37:23;;;;;;;13.83;9.95;;;;;;;;;;4338966;81;28490;-77
2022/06/08 04:43:31;;;;;;;14.40;9.95;;;;;;;;;;4461596;79;28556;-76
2022/06/08 04:49:35;;;;;;;12.40;9.45;;;;;;;;;;4451071;79;28506;-86
2022/06/08 04:55:37;;;;;;;14.50;10.03;;;;;;;;;;4395586;80;28508;-79
2022/06/08 05:01:39;;;;;;;13.25;10.18;;;;;;;;;;4372290;80;28518;-81
2022/06/08 05:07:42;;;;;;;12.98;9.33;;;;;;;;;;4337869;80;28571;-80
2022/06/08 05:13:46;;;;;;;12.37;9.20;;;;;;;;;;4414737;79;28550;-82
2022/06/08 05:19:48;;;;;;;11.78;9.68;;;;;;;;;;4434420;79;28514;-79
2022/06/08 05:25:50;;;;;;;11.83;8.88;;;;;;;;;;4409599;79;28515;-81
2022/06/08 05:31:51;;;;;;;13.68;8.85;;;;;;;;;;4448070;78;28518;-79
2022/06/08 05:37:53;;;;;;;16.23;8.75;;;;;;;;;;4405116;80;28535;-79
2022/06/08 05:43:55;;;;;;;11.85;8.40;;;;;;;;;;4443248;79;28560;-79
2022/06/08 05:49:57;;;;;;;12.58;7.75;;;;;;;;;;4447184;78;28539;-80
2022/06/08 05:55:59;;;;;;;9.35;8.13;;;;;;;;;;4440138;80;28488;-82
2022/06/08 06:02:01;;;;;;;12.13;8.83;;;;;;;;;;4449086;80;28463;-80
2022/06/08 06:08:04;;;;;;;12.33;9.88;;;;;;;;;;4451284;80;28541;-79
2022/06/08 06:14:08;;;;;;;11.93;9.30;;;;;;;;;;4445952;80;28529;-79
2022/06/08 06:20:12;;;;;;;11.73;9.35;;;;;;;;;;4445932;79;28504;-80
2022/06/08 06:26:17;;;;;;;14.65;9.53;;;;;;;;;;4437439;79;28514;-76
2022/06/08 06:32:30;;;;;;;10.13;9.03;;;;;;;;;;4369651;80;28547;-80
2022/06/08 06:38:32;;;;;;;11.43;9.25;;;;;;;;;;4369212;80;28521;-78
2022/06/08 06:44:34;;;;;;;10.38;7.72;;;;;;;;;;4368787;80;28510;-79
2022/06/08 06:50:43;;;;;;;10.20;8.35;;;;;;;;;;4404891;80;28499;-77
2022/06/08 06:56:46;;;;;;;15.85;10.23;;;;;;;;;;4339752;80;28521;-77
2022/06/08 07:02:49;;;;;;;14.00;10.78;;;;;;;;;;4391773;80;28517;-79
2022/06/08 07:08:53;;;;;;;17.60;13.22;;;;;;;;;;4401615;80;28628;-79
2022/06/08 07:14:54;;;;;;;17.50;12.47;;;;;;;;;;4389388;80;28535;-79
2022/06/08 07:20:56;;;;;;;16.67;12.03;;;;;;;;;;4403612;80;28459;-78
2022/06/08 07:26:58;;;;;;;16.52;11.48;;;;;;;;;;4402953;80;28570;-78
2022/06/08 07:33:01;;;;;;;15.48;10.63;;;;;;;;;;4413041;80;28729;-78
2022/06/08 07:39:04;;;;;;;13.80;10.00;;;;;;;;;;4400532;80;28489;-78
2022/06/08 07:45:12;;;;;;;16.25;10.85;;;;;;;;;;4412462;80;28546;-78
2022/06/08 07:51:13;;;;;;;15.05;12.03;;;;;;;;;;4397975;79;28549;-77
2022/06/08 07:57:21;;;;;;;13.08;9.43;;;;;;;;;;4383487;79;28512;-77
2022/06/08 08:03:23;;;;;;;14.80;10.78;;;;;;;;;;4402034;80;28503;-77
2022/06/08 08:09:24;;;;;;;15.65;9.95;;;;;;;;;;4421723;80;28509;-78
2022/06/08 08:15:26;;;;;;;16.10;11.33;;;;;;;;;;4388424;80;28540;-78
2022/06/08 08:21:28;;;;;;;15.68;11.00;;;;;;;;;;4402557;80;28555;-78
2022/06/08 08:27:29;;;;;;;17.48;12.82;;;;;;;;;;4391443;79;28526;-78
2022/06/08 08:33:30;;;;;;;16.73;12.88;;;;;;;;;;4394127;80;28487;-78
2022/06/08 08:39:32;;;;;;;14.55;10.90;;;;;;;;;;4415032;80;28481;-78
2022/06/08 08:45:37;;;;;;;17.15;11.73;;;;;;;;;;4414276;80;28533;-78
2022/06/08 08:51:44;;;;;;;16.27;11.55;;;;;;;;;;4401766;80;28570;-77
2022/06/08 08:57:53;;;;;;;15.03;10.50;;;;;;;;;;4411331;80;28566;-84
2022/06/08 09:03:58;;;;;;;12.70;9.28;;;;;;;;;;4432004;80;28549;-79
2022/06/08 09:09:59;;;;;;;11.03;8.38;;;;;;;;;;4419163;80;28583;-82
2022/06/08 09:16:00;;;;;;;8.90;6.95;;;;;;;;;;4419312;80;28584;-80
2022/06/08 09:22:10;;;;;;;6.60;4.87;;;;;;;;;;4411822;80;28630;-80
2022/06/08 09:28:27;;;;;;;6.33;4.20;;;;;;;;;;4418963;79;28568;-79
2022/06/08 09:34:33;;;;;;;5.58;4.10;;;;;;;;;;4411751;79;28566;-80
2022/06/08 09:40:54;;;;;;;6.55;3.47;;;;;;;;;;4415175;79;28509;-81
2022/06/08 09:53:42;;;;;;;5.78;4.20;;;;;;;;;;4426799;79;28547;-80
2022/06/08 10:00:09;;;;;;;7.67;4.90;;;;;;;;;;4431685;79;28575;-81
2022/06/08 10:06:19;;;;;;;9.25;6.53;;;;;;;;;;4412137;79;28550;-82
2022/06/08 10:12:43;;;;;;;5.65;4.58;;;;;;;;;;4432250;79;28975;-82
2022/06/08 10:18:48;;;;;;;;;;;;;;;;;;4450826;79;28575;-80
2022/06/08 10:25:08;;;;;;;7.62;6.20;;;;;;;;;;4428243;79;20260;-78
2022/06/08 10:31:21;;;;;;;9.38;7.33;;;;;;;;;;4386822;79;28594;-78
2022/06/08 10:37:38;;;;;;;9.48;6.78;;;;;;;;;;4387965;79;28507;-81
2022/06/08 10:43:47;;;;;;;7.20;5.95;;;;;;;;;;4390683;79;28516;-80
2022/06/08 10:49:52;;;;;;;8.25;6.17;;;;;;;;;;4361749;80;28485;-77
2022/06/08 10:55:53;;;;;;;9.37;6.50;;;;;;;;;;4345201;80;28544;-79
2022/06/08 11:02:11;;;;;;;9.65;7.05;;;;;;;;;;4349937;80;28486;-77
2022/06/08 11:08:22;;;;;;;10.08;7.33;;;;;;;;;;4397341;80;28590;-82
2022/06/08 11:14:26;;;;;;;8.33;7.30;;;;;;;;;;4332508;80;28544;-79
2022/06/08 11:20:37;;;;;;;10.38;7.15;;;;;;;;;;4371775;80;28525;-77
2022/06/08 11:26:43;;;;;;;8.35;6.78;;;;;;;;;;4378854;80;28525;-78
2022/06/08 11:32:54;;;;;;;7.20;5.92;;;;;;;;;;4354787;80;28560;-78
2022/06/08 11:39:02;;;;;;;12.95;7.45;;;;;;;;;;4351752;80;28552;-79
2022/06/08 11:45:19;;;;;;;8.70;6.95;;;;;;;;;;4408331;79;28537;-76
2022/06/08 11:51:37;;;;;;;9.28;7.53;;;;;;;;;;4408516;79;28511;-80
2022/06/08 11:58:00;;;;;;;11.43;7.17;;;;;;;;;;4341066;80;28573;-79
2022/06/08 12:04:19;;;;;;;10.55;7.37;;;;;;;;;;4322208;82;28512;-79
2022/06/08 12:10:27;;;;;;;9.28;7.42;;;;;;;;;;4352910;80;28540;-78
2022/06/08 12:16:32;;;;;;;8.03;6.78;;;;;;;;;;4369493;80;28504;-78
2022/06/08 12:22:36;;;;;;;8.45;6.75;;;;;;;;;;4357356;80;28527;-80
2022/06/08 12:28:37;;;;;;;7.58;6.08;;;;;;;;;;4347407;80;28540;-78
2022/06/08 12:34:54;;;;;;;8.38;6.65;;;;;;;;;;4406643;80;28535;-80
2022/06/08 12:41:09;;;;;;;8.75;5.83;;;;;;;;;;4440536;79;28502;-78
2022/06/08 12:47:16;;;;;;;8.93;6.42;;;;;;;;;;4482243;79;28537;-78
2022/06/08 12:53:18;;;;;;;9.05;5.97;;;;;;;;;;4422348;80;28622;-78
2022/06/08 12:59:21;;;;;;;8.03;6.25;;;;;;;;;;4422560;79;28508;-76
2022/06/08 13:05:28;;;;;;;7.47;5.97;;;;;;;;;;4404506;80;28501;-77
2022/06/08 13:11:30;;;;;;;10.20;6.22;;;;;;;;;;4391723;80;28510;-75
2022/06/08 13:17:31;;;;;;;7.58;6.20;;;;;;;;;;4408188;80;28502;-77
2022/06/08 13:23:32;;;;;;;7.97;5.75;;;;;;;;;;4392653;80;28579;-77
2022/06/08 13:29:33;;;;;;;6.67;5.33;;;;;;;;;;4393383;80;28476;-76
2022/06/08 13:35:34;;;;;;;8.70;5.67;;;;;;;;;;4430874;80;28508;-78
2022/06/08 13:41:38;;;;;;;9.55;6.40;;;;;;;;;;4430259;79;28500;-82
2022/06/08 13:47:41;;;;;;;10.03;7.72;;;;;;;;;;4423517;79;28502;-81
2022/06/08 13:53:44;;;;;;;11.75;8.93;;;;;;;;;;4432112;79;28468;-80
2022/06/08 13:59:46;;;;;;;11.70;9.78;;;;;;;;;;4429572;80;28485;-81
2022/06/08 14:18:40;;;;;;;11.12;9.18;;;;;;;;;;4447268;79;28446;-80
2022/06/08 14:24:45;;;;;;;10.15;8.43;;;;;;;;;;4431205;79;28513;-80
2022/06/08 14:30:48;;;;;;;15.10;12.10;;;;;;;;;;4431856;79;28504;-81
2022/06/08 14:36:51;;;;;;;13.18;11.22;;;;;;;;;;4437723;79;28551;-82
2022/06/08 14:42:55;;;;;;;13.78;10.65;;;;;;;;;;4410028;79;28516;-83
2022/06/08 14:48:56;;;;;;;11.45;9.43;;;;;;;;;;4428521;79;28541;-79
2022/06/08 14:54:59;;;;;;;12.70;10.68;;;;;;;;;;4422326;79;28469;-76
2022/06/08 15:01:00;;;;;;;14.35;10.70;;;;;;;;;;4427834;79;28523;-84
2022/06/08 15:07:03;;;;;;;13.18;10.20;;;;;;;;;;4444762;79;28596;-80
2022/06/08 15:13:04;;;;;;;12.68;9.40;;;;;;;;;;4419700;80;28480;-76
2022/06/08 15:19:09;;;;;;;13.05;9.78;;;;;;;;;;4420678;79;28536;-77
2022/06/08 15:25:12;;;;;;;12.73;10.28;;;;;;;;;;4441381;79;28537;-77
2022/06/08 15:31:13;;;;;;;10.65;9.15;;;;;;;;;;4356603;80;28522;-77
2022/06/08 15:37:18;;;;;;;13.55;12.00;;;;;;;;;;4357969;80;28573;-77
2022/06/08 15:43:19;;;;;;;14.55;12.25;;;;;;;;;;4387536;80;28542;-78
2022/06/08 15:49:23;;;;;;;8.68;5.97;;;;;;;;;;4459395;78;28536;-76
2022/06/08 15:55:28;;;;;;;9.00;5.75;;;;;;;;;;4456297;78;28522;-78
2022/06/08 16:01:32;;;;;;;7.47;5.62;;;;;;;;;;4454404;78;28504;-76
2022/06/08 16:07:32;;;;;;;6.17;4.65;;;;;;;;;;4451351;78;28528;-78
2022/06/08 16:13:33;;;;;;;6.95;5.47;;;;;;;;;;4390056;80;28513;-76
2022/06/08 16:19:35;;;;;;;7.95;6.30;;;;;;;;;;4384430;80;28488;-79
2022/06/08 16:25:39;;;;;;;7.95;5.60;;;;;;;;;;4378332;80;28529;-81
2022/06/08 16:31:41;;;;;;;6.40;5.25;;;;;;;;;;4356137;80;28547;-82
2022/06/08 16:37:43;;;;;;;5.87;4.90;;;;;;;;;;4351381;81;28568;-81
2022/06/08 16:43:44;;;;;;;5.90;4.30;;;;;;;;;;4356953;81;28539;-82
2022/06/08 16:49:45;;;;;;;6.20;4.95;;;;;;;;;;4358327;81;28571;-80
2022/06/08 16:55:46;;;;;;;5.62;4.62;;;;;;;;;;4338786;81;28507;-82
2022/06/08 17:01:48;;;;;;;5.03;4.22;;;;;;;;;;4322614;81;28516;-81
2022/06/08 17:07:52;;;;;;;6.33;5.45;;;;;;;;;;4335997;81;28535;-74
2022/06/08 17:13:54;;;;;;;6.80;4.92;;;;;;;;;;4325193;81;28516;-74
2022/06/08 17:19:57;;;;;;;6.20;4.95;;;;;;;;;;4325864;81;28957;-75
2022/06/08 17:25:58;;;;;;;7.20;4.58;;;;;;;;;;4332207;81;28563;-76
2022/06/08 17:32:00;;;;;;;6.12;4.95;;;;;;;;;;4363981;80;28527;-74
2022/06/08 17:38:02;;;;;;;7.53;5.53;;;;;;;;;;4408573;80;28555;-73
2022/06/08 17:44:03;;;;;;;6.25;5.35;;;;;;;;;;4394270;80;28490;-74
2022/06/08 17:50:07;;;;;;;6.92;5.65;;;;;;;;;;4382311;80;28529;-75
2022/06/08 17:56:10;;;;;;;6.67;5.62;;;;;;;;;;4381355;80;42751;-74
2022/06/08 18:02:14;;;;;;;6.35;4.87;;;;;;;;;;4382693;80;28533;-74
2022/06/08 18:08:15;;;;;;;7.30;4.85;;;;;;;;;;4375373;80;28517;-73
2022/06/08 18:14:16;;;;;;;6.75;4.97;;;;;;;;;;4381066;80;28536;-74
2022/06/08 18:20:30;;;;;;;6.47;5.17;;;;;;;;;;4380824;80;28534;-74
2022/06/08 18:26:31;;;;;;;7.62;5.40;;;;;;;;;;4367840;80;28546;-74
2022/06/08 18:32:32;;;;;;;7.30;5.70;;;;;;;;;;4342387;80;28561;-76
2022/06/08 18:38:36;;;;;;;9.18;5.95;;;;;;;;;;4299689;82;28505;-78
2022/06/08 18:44:37;;;;;;;8.60;6.28;;;;;;;;;;4294284;81;28487;-79
2022/06/08 18:50:39;;;;;;;7.20;5.87;;;;;;;;;;4291526;81;28606;-76
2022/06/08 18:56:41;;;;;;;8.13;5.97;;;;;;;;;;4293567;81;28556;-75
2022/06/08 19:02:43;;;;;;;9.95;6.28;;;;;;;;;;4296212;82;28541;-79
2022/06/08 19:08:46;;;;;;;9.85;6.65;;;;;;;;;;4294400;81;28545;-76
2022/06/08 19:14:47;;;;;;;9.93;6.90;;;;;;;;;;4296957;81;28549;-73
2022/06/08 19:20:52;;;;;;;7.33;5.90;;;;;;;;;;4293621;81;28489;-77
2022/06/08 19:26:53;;;;;;;8.48;6.20;;;;;;;;;;4296071;82;28513;-76
2022/06/08 19:32:54;;;;;;;8.70;6.17;;;;;;;;;;4322399;80;28579;-78
2022/06/08 19:38:56;;;;;;;10.48;6.33;;;;;;;;;;4355613;80;28529;-76
2022/06/08 19:44:58;;;;;;;7.70;6.30;;;;;;;;;;4370498;80;28519;-80
2022/06/08 19:50:59;;;;;;;10.90;6.78;;;;;;;;;;4402935;80;28517;-75
2022/06/08 19:57:00;;;;;;;9.98;6.30;;;;;;;;;;4449100;79;28568;-78
2022/06/08 20:03:03;;;;;;;11.45;6.83;;;;;;;;;;4356852;80;28529;-76
2022/06/08 20:09:05;;;;;;;10.32;7.22;;;;;;;;;;4370660;80;28563;-77
2022/06/08 20:15:08;;;;;;;10.35;7.30;;;;;;;;;;4373433;80;28532;-76
2022/06/08 20:21:13;;;;;;;9.68;7.50;;;;;;;;;;4370265;80;28526;-76
2022/06/08 20:27:14;;;;;;;10.72;7.60;;;;;;;;;;4452283;79;28556;-76
2022/06/08 20:33:16;;;;;;;12.93;8.15;;;;;;;;;;4457991;78;28578;-75
2022/06/08 20:39:20;;;;;;;11.30;8.30;;;;;;;;;;4377412;80;28493;-75
2022/06/08 20:45:26;;;;;;;10.93;8.48;;;;;;;;;;4365832;80;28528;-74
2022/06/08 20:51:29;;;;;;;11.00;8.63;;;;;;;;;;4374105;80;28520;-76
2022/06/08 20:57:31;;;;;;;12.13;9.38;;;;;;;;;;4370948;80;28510;-76
2022/06/08 21:03:35;;;;;;;13.28;9.53;;;;;;;;;;4371837;80;28598;-77
2022/06/08 21:09:39;;;;;;;12.67;9.27;;;;;;;;;;4412589;80;28532;-75
2022/06/08 21:15:41;;;;;;;12.93;8.75;;;;;;;;;;4414119;80;28490;-75
2022/06/08 21:21:43;;;;;;;11.65;8.50;;;;;;;;;;4493050;79;28522;-77
2022/06/08 21:27:44;;;;;;;10.28;8.43;;;;;;;;;;4469946;78;28485;-76
2022/06/08 21:33:45;;;;;;;10.58;8.78;;;;;;;;;;4449981;79;28503;-79
2022/06/08 21:39:47;;;;;;;12.85;8.53;;;;;;;;;;4443369;79;28605;-77
2022/06/08 21:45:48;;;;;;;10.60;8.23;;;;;;;;;;4360676;81;28615;-80
2022/06/08 21:51:50;;;;;;;11.20;8.35;;;;;;;;;;4383193;80;28529;-78
2022/06/08 21:57:52;;;;;;;11.10;8.45;;;;;;;;;;4405492;79;28513;-77
2022/06/08 22:03:54;;;;;;;9.83;7.92;;;;;;;;;;4404174;80;28543;-77
2022/06/08 22:09:56;;;;;;;12.33;9.30;;;;;;;;;;4358075;80;28529;-76
2022/06/08 22:15:59;;;;;;;12.30;9.33;;;;;;;;;;4404232;79;28515;-77
2022/06/08 22:22:00;;;;;;;13.53;9.33;;;;;;;;;;4387498;80;28511;-77
2022/06/08 22:28:02;;;;;;;12.15;8.63;;;;;;;;;;4393987;80;28577;-77
2022/06/08 22:34:04;;;;;;;11.97;9.70;;;;;;;;;;4368758;80;28537;-76
2022/06/08 22:40:06;;;;;;;14.33;9.45;;;;;;;;;;4369591;80;28527;-77
2022/06/08 22:46:07;;;;;;;14.87;9.58;;;;;;;;;;4449418;79;28482;-77
2022/06/08 22:52:08;;;;;;;11.57;9.25;;;;;;;;;;4386328;80;28547;-76
2022/06/08 22:58:10;;;;;;;12.35;9.23;;;;;;;;;;4401056;80;28508;-77
2022/06/08 23:04:11;;;;;;;12.88;9.38;;;;;;;;;;4402658;81;28502;-74
2022/06/08 23:10:14;;;;;;;15.08;11.10;;;;;;;;;;4403202;81;28484;-76
2022/06/08 23:22:34;;;;;;;14.20;10.60;;;;;;;;;;4411068;78;28504;-74
2022/06/08 23:28:35;;;;;;;12.82;10.30;;;;;;;;;;4369062;80;28544;-77
2022/06/08 23:34:37;;;;;;;12.30;9.60;;;;;;;;;;4371859;80;28536;-75
2022/06/08 23:40:41;;;;;;;13.20;9.80;;;;;;;;;;4438546;78;28525;-76
2022/06/08 23:46:43;;;;;;;14.50;10.08;;;;;;;;;;4403722;80;28517;-76
2022/06/08 23:52:44;;;;;;;16.45;11.00;;;;;;;;;;4391575;80;28481;-78
2022/06/08 23:58:47;;;;;;;15.05;10.98;;;;;;;;;;4400430;80;28559;-76
